sensor_id;sensor_type;location;lat;lon;timestamp;pressure;altitude;pressure_sealevel;temperature;humidity
28310;BME280;15571;50.974;13.936;2022-12-18T00:02:44;101711.47;;;-5.27;100.00
28310;BME280;15571;50.974;13.936;2022-12-18T00:05:50;101710.19;;;-5.33;100.00
28310;BME280;15571;50.974;13.936;2022-12-18T00:08:52;101718.22;;;-5.38;100.00
28310;BME280;15571;50.974;13.936;2022-12-18T00:11:56;101713.66;;;-5.42;100.00
28310;BME280;15571;50.974;13.936;2022-12-18T00:14:58;101718.25;;;-5.49;100.00
28310;BME280;15571;50.974;13.936;2022-12-18T00:18:02;101721.31;;;-5.53;100.00
28310;BME280;15571;50.974;13.936;2022-12-18T00:21:04;101726.69;;;-5.60;100.00
28310;BME280;15571;50.974;13.936;2022-12-18T00:24:07;101737.38;;;-5.64;100.00
28310;BME280;15571;50.974;13.936;2022-12-18T00:27:09;101748.88;;;-5.69;100.00
28310;BME280;15571;50.974;13.936;2022-12-18T00:30:11;101749.34;;;-5.73;100.00
28310;BME280;15571;50.974;13.936;2022-12-18T00:33:15;101745.53;;;-5.79;100.00
28310;BME280;15571;50.974;13.936;2022-12-18T00:36:20;101751.88;;;-5.84;100.00
28310;BME280;15571;50.974;13.936;2022-12-18T00:39:22;101752.41;;;-5.88;100.00
28310;BME280;15571;50.974;13.936;2022-12-18T00:42:24;101756.19;;;-5.93;100.00
28310;BME280;15571;50.974;13.936;2022-12-18T00:45:44;101761.03;;;-5.96;100.00
28310;BME280;15571;50.974;13.936;2022-12-18T00:48:48;101769.22;;;-6.00;100.00
28310;BME280;15571;50.974;13.936;2022-12-18T00:51:52;101766.28;;;-6.05;100.00
28310;BME280;15571;50.974;13.936;2022-12-18T00:54:55;101776.97;;;-6.09;100.00
28310;BME280;15571;50.974;13.936;2022-12-18T00:57:57;101776.84;;;-6.11;100.00
28310;BME280;15571;50.974;13.936;2022-12-18T01:01:00;101775.53;;;-6.16;100.00
28310;BME280;15571;50.974;13.936;2022-12-18T01:04:04;101770.03;;;-6.20;100.00
28310;BME280;15571;50.974;13.936;2022-12-18T01:07:06;101768.25;;;-6.21;100.00
28310;BME280;15571;50.974;13.936;2022-12-18T01:10:09;101756.38;;;-6.31;100.00
28310;BME280;15571;50.974;13.936;2022-12-18T01:13:13;101769.59;;;-6.35;100.00
28310;BME280;15571;50.974;13.936;2022-12-18T01:16:16;101772.28;;;-6.34;100.00
28310;BME280;15571;50.974;13.936;2022-12-18T01:19:20;101776.75;;;-6.31;100.00
28310;BME280;15571;50.974;13.936;2022-12-18T01:22:25;101776.41;;;-6.26;100.00
28310;BME280;15571;50.974;13.936;2022-12-18T01:25:28;101775.66;;;-6.24;100.00
28310;BME280;15571;50.974;13.936;2022-12-18T01:28:30;101789.03;;;-6.27;100.00
28310;BME280;15571;50.974;13.936;2022-12-18T01:31:36;101792.81;;;-6.32;100.00
28310;BME280;15571;50.974;13.936;2022-12-18T01:34:39;101787.03;;;-6.40;100.00
28310;BME280;15571;50.974;13.936;2022-12-18T01:37:41;101789.03;;;-6.46;100.00
28310;BME280;15571;50.974;13.936;2022-12-18T01:40:43;101785.19;;;-6.51;100.00
28310;BME280;15571;50.974;13.936;2022-12-18T01:43:52;101785.06;;;-6.53;100.00
28310;BME280;15571;50.974;13.936;2022-12-18T01:46:55;101787.47;;;-6.54;100.00
28310;BME280;15571;50.974;13.936;2022-12-18T01:49:59;101790.50;;;-6.59;100.00
28310;BME280;15571;50.974;13.936;2022-12-18T01:53:06;101798.13;;;-6.59;100.00
28310;BME280;15571;50.974;13.936;2022-12-18T01:56:11;101793.13;;;-6.67;100.00
28310;BME280;15571;50.974;13.936;2022-12-18T01:59:16;101793.06;;;-6.78;100.00
28310;BME280;15571;50.974;13.936;2022-12-18T02:02:19;101791.28;;;-6.79;100.00
28310;BME280;15571;50.974;13.936;2022-12-18T02:05:25;101794.59;;;-6.80;100.00
28310;BME280;15571;50.974;13.936;2022-12-18T02:08:32;101794.09;;;-6.76;100.00
28310;BME280;15571;50.974;13.936;2022-12-18T02:11:39;101794.66;;;-6.69;100.00
28310;BME280;15571;50.974;13.936;2022-12-18T02:14:44;101791.19;;;-6.70;100.00
28310;BME280;15571;50.974;13.936;2022-12-18T02:17:50;101796.91;;;-6.73;100.00
28310;BME280;15571;50.974;13.936;2022-12-18T02:20:55;101797.53;;;-6.75;100.00
28310;BME280;15571;50.974;13.936;2022-12-18T02:24:03;101796.38;;;-6.79;100.00
28310;BME280;15571;50.974;13.936;2022-12-18T02:27:12;101790.88;;;-6.83;100.00
28310;BME280;15571;50.974;13.936;2022-12-18T02:30:15;101795.56;;;-6.88;100.00
28310;BME280;15571;50.974;13.936;2022-12-18T02:33:17;101795.25;;;-6.91;100.00
28310;BME280;15571;50.974;13.936;2022-12-18T02:36:20;101792.19;;;-6.97;100.00
28310;BME280;15571;50.974;13.936;2022-12-18T02:39:28;101799.25;;;-7.04;100.00
28310;BME280;15571;50.974;13.936;2022-12-18T02:42:38;101807.63;;;-7.05;100.00
28310;BME280;15571;50.974;13.936;2022-12-18T02:45:49;101810.97;;;-7.06;100.00
28310;BME280;15571;50.974;13.936;2022-12-18T02:48:53;101807.09;;;-7.11;100.00
28310;BME280;15571;50.974;13.936;2022-12-18T02:52:00;101816.72;;;-7.17;100.00
28310;BME280;15571;50.974;13.936;2022-12-18T02:55:08;101804.00;;;-7.17;100.00
28310;BME280;15571;50.974;13.936;2022-12-18T02:58:20;101803.22;;;-7.16;100.00
28310;BME280;15571;50.974;13.936;2022-12-18T03:01:33;101800.53;;;-7.17;100.00
28310;BME280;15571;50.974;13.936;2022-12-18T03:04:38;101809.53;;;-7.21;100.00
28310;BME280;15571;50.974;13.936;2022-12-18T03:07:43;101815.53;;;-7.21;100.00
28310;BME280;15571;50.974;13.936;2022-12-18T03:10:48;101806.25;;;-7.20;100.00
28310;BME280;15571;50.974;13.936;2022-12-18T03:13:54;101799.50;;;-7.20;100.00
28310;BME280;15571;50.974;13.936;2022-12-18T03:17:00;101799.34;;;-7.21;100.00
28310;BME280;15571;50.974;13.936;2022-12-18T03:20:05;101805.94;;;-7.23;100.00
28310;BME280;15571;50.974;13.936;2022-12-18T03:23:11;101805.69;;;-7.26;100.00
28310;BME280;15571;50.974;13.936;2022-12-18T03:26:19;101819.91;;;-7.28;100.00
28310;BME280;15571;50.974;13.936;2022-12-18T03:29:29;101818.75;;;-7.32;100.00
28310;BME280;15571;50.974;13.936;2022-12-18T03:32:36;101822.78;;;-7.34;100.00
28310;BME280;15571;50.974;13.936;2022-12-18T03:35:41;101822.06;;;-7.42;100.00
28310;BME280;15571;50.974;13.936;2022-12-18T03:38:46;101820.00;;;-7.46;100.00
28310;BME280;15571;50.974;13.936;2022-12-18T03:41:52;101820.47;;;-7.50;100.00
28310;BME280;15571;50.974;13.936;2022-12-18T03:45:08;101826.31;;;-7.51;100.00
28310;BME280;15571;50.974;13.936;2022-12-18T03:48:14;101823.34;;;-7.56;100.00
28310;BME280;15571;50.974;13.936;2022-12-18T03:51:22;101824.69;;;-7.59;100.00
28310;BME280;15571;50.974;13.936;2022-12-18T03:54:27;101832.78;;;-7.63;100.00
28310;BME280;15571;50.974;13.936;2022-12-18T03:57:41;101832.22;;;-7.70;100.00
28310;BME280;15571;50.974;13.936;2022-12-18T04:00:46;101832.53;;;-7.75;100.00
28310;BME280;15571;50.974;13.936;2022-12-18T04:03:50;101840.66;;;-7.79;100.00
28310;BME280;15571;50.974;13.936;2022-12-18T04:06:54;101837.66;;;-7.84;100.00
28310;BME280;15571;50.974;13.936;2022-12-18T04:09:58;101829.00;;;-7.86;100.00
28310;BME280;15571;50.974;13.936;2022-12-18T04:13:04;101830.69;;;-7.95;100.00
28310;BME280;15571;50.974;13.936;2022-12-18T04:16:07;101832.59;;;-8.02;100.00
28310;BME280;15571;50.974;13.936;2022-12-18T04:19:14;101835.03;;;-8.03;100.00
28310;BME280;15571;50.974;13.936;2022-12-18T04:22:18;101839.22;;;-8.04;100.00
28310;BME280;15571;50.974;13.936;2022-12-18T04:25:25;101839.53;;;-8.09;100.00
28310;BME280;15571;50.974;13.936;2022-12-18T04:28:38;101835.94;;;-8.11;100.00
28310;BME280;15571;50.974;13.936;2022-12-18T04:31:45;101846.09;;;-8.11;100.00
28310;BME280;15571;50.974;13.936;2022-12-18T04:34:47;101848.50;;;-8.13;100.00
28310;BME280;15571;50.974;13.936;2022-12-18T04:37:50;101845.50;;;-8.18;100.00
28310;BME280;15571;50.974;13.936;2022-12-18T04:40:52;101853.16;;;-8.26;100.00
28310;BME280;15571;50.974;13.936;2022-12-18T04:44:00;101860.47;;;-8.30;100.00
28310;BME280;15571;50.974;13.936;2022-12-18T04:47:03;101853.59;;;-8.31;100.00
28310;BME280;15571;50.974;13.936;2022-12-18T04:50:06;101844.94;;;-8.33;100.00
28310;BME280;15571;50.974;13.936;2022-12-18T04:53:09;101851.78;;;-8.32;100.00
28310;BME280;15571;50.974;13.936;2022-12-18T04:56:14;101863.16;;;-8.37;100.00
28310;BME280;15571;50.974;13.936;2022-12-18T04:59:17;101862.25;;;-8.37;100.00
28310;BME280;15571;50.974;13.936;2022-12-18T05:02:20;101859.56;;;-8.39;100.00
28310;BME280;15571;50.974;13.936;2022-12-18T05:05:22;101857.03;;;-8.39;100.00
28310;BME280;15571;50.974;13.936;2022-12-18T05:08:27;101852.69;;;-8.40;100.00
28310;BME280;15571;50.974;13.936;2022-12-18T05:11:29;101854.97;;;-8.43;100.00
28310;BME280;15571;50.974;13.936;2022-12-18T05:14:31;101857.97;;;-8.47;100.00
28310;BME280;15571;50.974;13.936;2022-12-18T05:17:34;101858.81;;;-8.47;100.00
28310;BME280;15571;50.974;13.936;2022-12-18T05:20:36;101862.28;;;-8.46;100.00
28310;BME280;15571;50.974;13.936;2022-12-18T05:23:38;101852.91;;;-8.47;100.00
28310;BME280;15571;50.974;13.936;2022-12-18T05:26:40;101861.34;;;-8.47;100.00
28310;BME280;15571;50.974;13.936;2022-12-18T05:29:42;101855.72;;;-8.44;100.00
28310;BME280;15571;50.974;13.936;2022-12-18T05:32:46;101844.03;;;-8.42;100.00
28310;BME280;15571;50.974;13.936;2022-12-18T05:35:49;101859.25;;;-8.42;100.00
28310;BME280;15571;50.974;13.936;2022-12-18T05:38:52;101863.59;;;-8.41;100.00
28310;BME280;15571;50.974;13.936;2022-12-18T05:41:57;101864.66;;;-8.39;100.00
28310;BME280;15571;50.974;13.936;2022-12-18T05:45:00;101867.34;;;-8.37;100.00
28310;BME280;15571;50.974;13.936;2022-12-18T05:48:04;101869.13;;;-8.36;100.00
28310;BME280;15571;50.974;13.936;2022-12-18T05:51:06;101879.47;;;-8.35;100.00
28310;BME280;15571;50.974;13.936;2022-12-18T05:54:09;101873.63;;;-8.34;100.00
28310;BME280;15571;50.974;13.936;2022-12-18T05:57:11;101865.28;;;-8.33;100.00
28310;BME280;15571;50.974;13.936;2022-12-18T06:00:14;101861.94;;;-8.32;100.00
28310;BME280;15571;50.974;13.936;2022-12-18T06:03:17;101869.56;;;-8.32;100.00
28310;BME280;15571;50.974;13.936;2022-12-18T06:06:20;101867.34;;;-8.29;100.00
28310;BME280;15571;50.974;13.936;2022-12-18T06:09:22;101868.25;;;-8.28;100.00
28310;BME280;15571;50.974;13.936;2022-12-18T06:12:24;101875.09;;;-8.27;100.00
28310;BME280;15571;50.974;13.936;2022-12-18T06:15:27;101882.88;;;-8.25;100.00
28310;BME280;15571;50.974;13.936;2022-12-18T06:18:30;101884.50;;;-8.26;100.00
28310;BME280;15571;50.974;13.936;2022-12-18T06:21:32;101882.88;;;-8.25;100.00
28310;BME280;15571;50.974;13.936;2022-12-18T06:24:34;101886.19;;;-8.26;100.00
28310;BME280;15571;50.974;13.936;2022-12-18T06:27:36;101888.56;;;-8.28;100.00
28310;BME280;15571;50.974;13.936;2022-12-18T06:30:38;101880.19;;;-8.27;100.00
28310;BME280;15571;50.974;13.936;2022-12-18T06:33:42;101876.44;;;-8.31;100.00
28310;BME280;15571;50.974;13.936;2022-12-18T06:36:44;101899.31;;;-8.31;100.00
28310;BME280;15571;50.974;13.936;2022-12-18T06:39:46;101896.03;;;-8.30;100.00
28310;BME280;15571;50.974;13.936;2022-12-18T06:42:49;101896.94;;;-8.29;100.00
28310;BME280;15571;50.974;13.936;2022-12-18T06:45:57;101896.94;;;-8.29;100.00
28310;BME280;15571;50.974;13.936;2022-12-18T06:49:01;101893.66;;;-8.28;100.00
28310;BME280;15571;50.974;13.936;2022-12-18T06:52:03;101909.91;;;-8.26;100.00
28310;BME280;15571;50.974;13.936;2022-12-18T06:55:05;101907.56;;;-8.24;100.00
28310;BME280;15571;50.974;13.936;2022-12-18T06:58:08;101902.00;;;-8.20;100.00
28310;BME280;15571;50.974;13.936;2022-12-18T07:01:12;101903.06;;;-8.18;100.00
28310;BME280;15571;50.974;13.936;2022-12-18T07:04:16;101916.06;;;-8.15;100.00
28310;BME280;15571;50.974;13.936;2022-12-18T07:07:21;101925.75;;;-8.11;100.00
28310;BME280;15571;50.974;13.936;2022-12-18T07:10:23;101934.00;;;-8.05;100.00
28310;BME280;15571;50.974;13.936;2022-12-18T07:13:25;101929.34;;;-8.00;100.00
28310;BME280;15571;50.974;13.936;2022-12-18T07:16:27;101929.81;;;-7.95;100.00
28310;BME280;15571;50.974;13.936;2022-12-18T07:19:31;101929.34;;;-7.91;100.00
28310;BME280;15571;50.974;13.936;2022-12-18T07:22:33;101935.03;;;-7.85;100.00
28310;BME280;15571;50.974;13.936;2022-12-18T07:25:35;101936.34;;;-7.80;100.00
28310;BME280;15571;50.974;13.936;2022-12-18T07:28:38;101929.16;;;-7.75;100.00
28310;BME280;15571;50.974;13.936;2022-12-18T07:31:40;101917.81;;;-7.70;100.00
28310;BME280;15571;50.974;13.936;2022-12-18T07:34:44;101924.34;;;-7.63;100.00
28310;BME280;15571;50.974;13.936;2022-12-18T07:37:46;101931.81;;;-7.56;100.00
28310;BME280;15571;50.974;13.936;2022-12-18T07:40:50;101934.06;;;-7.51;100.00
28310;BME280;15571;50.974;13.936;2022-12-18T07:43:52;101945.69;;;-7.44;100.00
28310;BME280;15571;50.974;13.936;2022-12-18T07:46:54;101947.03;;;-7.39;100.00
28310;BME280;15571;50.974;13.936;2022-12-18T07:49:58;101951.81;;;-7.33;100.00
28310;BME280;15571;50.974;13.936;2022-12-18T07:53:00;101957.47;;;-7.27;100.00
28310;BME280;15571;50.974;13.936;2022-12-18T07:56:04;101963.16;;;-7.21;100.00
28310;BME280;15571;50.974;13.936;2022-12-18T07:59:07;101959.50;;;-7.14;100.00
28310;BME280;15571;50.974;13.936;2022-12-18T08:02:09;101960.97;;;-7.07;100.00
28310;BME280;15571;50.974;13.936;2022-12-18T08:05:12;101966.78;;;-6.99;100.00
28310;BME280;15571;50.974;13.936;2022-12-18T08:08:14;101962.44;;;-6.92;100.00
28310;BME280;15571;50.974;13.936;2022-12-18T08:11:16;101958.78;;;-6.85;100.00
28310;BME280;15571;50.974;13.936;2022-12-18T08:14:18;101956.06;;;-6.78;100.00
28310;BME280;15571;50.974;13.936;2022-12-18T08:17:20;101948.53;;;-6.67;100.00
28310;BME280;15571;50.974;13.936;2022-12-18T08:20:24;101947.81;;;-6.56;100.00
28310;BME280;15571;50.974;13.936;2022-12-18T08:23:26;101932.47;;;-6.47;100.00
28310;BME280;15571;50.974;13.936;2022-12-18T08:26:29;101934.22;;;-6.37;100.00
28310;BME280;15571;50.974;13.936;2022-12-18T08:29:31;101930.09;;;-6.27;100.00
28310;BME280;15571;50.974;13.936;2022-12-18T08:32:34;101931.66;;;-6.18;100.00
28310;BME280;15571;50.974;13.936;2022-12-18T08:35:39;101930.56;;;-6.12;100.00
28310;BME280;15571;50.974;13.936;2022-12-18T08:38:42;101942.47;;;-6.02;100.00
28310;BME280;15571;50.974;13.936;2022-12-18T08:41:46;101944.91;;;-5.93;100.00
28310;BME280;15571;50.974;13.936;2022-12-18T08:45:09;101934.66;;;-5.84;100.00
28310;BME280;15571;50.974;13.936;2022-12-18T08:48:10;101948.06;;;-5.76;100.00
28310;BME280;15571;50.974;13.936;2022-12-18T08:51:17;101950.41;;;-5.69;100.00
28310;BME280;15571;50.974;13.936;2022-12-18T08:54:19;101946.59;;;-5.64;100.00
28310;BME280;15571;50.974;13.936;2022-12-18T08:57:21;101950.56;;;-5.57;100.00
28310;BME280;15571;50.974;13.936;2022-12-18T09:00:23;101947.66;;;-5.52;100.00
28310;BME280;15571;50.974;13.936;2022-12-18T09:03:25;101950.75;;;-5.45;100.00
28310;BME280;15571;50.974;13.936;2022-12-18T09:06:28;101949.75;;;-5.37;100.00
28310;BME280;15571;50.974;13.936;2022-12-18T14:21:25;101917.03;;;-3.76;100.00
28310;BME280;15571;50.974;13.936;2022-12-18T14:24:28;101911.91;;;-3.76;100.00
28310;BME280;15571;50.974;13.936;2022-12-18T14:27:36;101905.88;;;-3.77;100.00
28310;BME280;15571;50.974;13.936;2022-12-18T14:30:42;101902.31;;;-3.79;100.00
28310;BME280;15571;50.974;13.936;2022-12-18T14:33:51;101890.03;;;-3.83;100.00
28310;BME280;15571;50.974;13.936;2022-12-18T14:36:59;101888.91;;;-3.86;100.00
28310;BME280;15571;50.974;13.936;2022-12-18T14:40:02;101884.31;;;-3.91;100.00
28310;BME280;15571;50.974;13.936;2022-12-18T14:43:08;101888.66;;;-3.89;100.00
28310;BME280;15571;50.974;13.936;2022-12-18T14:46:27;101872.28;;;-3.92;100.00
28310;BME280;15571;50.974;13.936;2022-12-18T14:49:30;101867.16;;;-3.92;100.00
28310;BME280;15571;50.974;13.936;2022-12-18T14:52:38;101865.41;;;-3.93;100.00
28310;BME280;15571;50.974;13.936;2022-12-18T14:55:43;101877.41;;;-3.92;100.00
28310;BME280;15571;50.974;13.936;2022-12-18T14:58:49;101886.84;;;-3.91;100.00
28310;BME280;15571;50.974;13.936;2022-12-18T15:01:56;101878.06;;;-3.94;100.00
28310;BME280;15571;50.974;13.936;2022-12-18T15:04:59;101884.84;;;-3.95;100.00
28310;BME280;15571;50.974;13.936;2022-12-18T15:11:31;101889.97;;;-3.95;100.00
28310;BME280;15571;50.974;13.936;2022-12-18T15:14:43;101893.03;;;-3.99;100.00
28310;BME280;15571;50.974;13.936;2022-12-18T15:17:56;101885.25;;;-4.00;100.00
28310;BME280;15571;50.974;13.936;2022-12-18T15:21:09;101871.53;;;-4.01;100.00
28310;BME280;15571;50.974;13.936;2022-12-18T15:24:20;101880.66;;;-4.04;100.00
28310;BME280;15571;50.974;13.936;2022-12-18T15:27:30;101878.75;;;-4.07;100.00
28310;BME280;15571;50.974;13.936;2022-12-18T15:30:33;101872.59;;;-4.09;100.00
28310;BME280;15571;50.974;13.936;2022-12-18T15:33:35;101873.38;;;-4.10;100.00
28310;BME280;15571;50.974;13.936;2022-12-18T15:36:38;101876.69;;;-4.11;100.00
28310;BME280;15571;50.974;13.936;2022-12-18T15:39:50;101881.03;;;-4.10;100.00
28310;BME280;15571;50.974;13.936;2022-12-18T15:42:53;101892.03;;;-4.11;100.00
28310;BME280;15571;50.974;13.936;2022-12-18T15:46:15;101873.38;;;-4.10;100.00
28310;BME280;15571;50.974;13.936;2022-12-18T15:49:19;101868.25;;;-4.10;100.00
28310;BME280;15571;50.974;13.936;2022-12-18T15:52:25;101867.00;;;-4.15;100.00
28310;BME280;15571;50.974;13.936;2022-12-18T15:55:31;101868.53;;;-4.17;100.00
28310;BME280;15571;50.974;13.936;2022-12-18T15:58:52;101871.88;;;-4.18;100.00
28310;BME280;15571;50.974;13.936;2022-12-18T16:01:57;101865.72;;;-4.20;100.00
28310;BME280;15571;50.974;13.936;2022-12-18T16:04:59;101863.16;;;-4.20;100.00
28310;BME280;15571;50.974;13.936;2022-12-18T16:08:06;101867.28;;;-4.23;100.00
28310;BME280;15571;50.974;13.936;2022-12-18T16:11:09;101865.25;;;-4.27;100.00
28310;BME280;15571;50.974;13.936;2022-12-18T16:14:20;101866.25;;;-4.25;100.00
28310;BME280;15571;50.974;13.936;2022-12-18T16:17:23;101872.41;;;-4.23;100.00
28310;BME280;15571;50.974;13.936;2022-12-18T16:20:27;101862.19;;;-4.23;100.00
28310;BME280;15571;50.974;13.936;2022-12-18T16:23:29;101851.94;;;-4.23;100.00
28310;BME280;15571;50.974;13.936;2022-12-18T16:26:31;101846.84;;;-4.23;100.00
28310;BME280;15571;50.974;13.936;2022-12-18T16:29:35;101844.78;;;-4.27;100.00
28310;BME280;15571;50.974;13.936;2022-12-18T16:32:37;101845.69;;;-4.26;100.00
28310;BME280;15571;50.974;13.936;2022-12-18T16:35:41;101854.91;;;-4.28;100.00
28310;BME280;15571;50.974;13.936;2022-12-18T16:38:51;101847.22;;;-4.28;100.00
28310;BME280;15571;50.974;13.936;2022-12-18T16:41:56;101851.44;;;-4.29;100.00
28310;BME280;15571;50.974;13.936;2022-12-18T16:45:01;101847.84;;;-4.31;100.00
28310;BME280;15571;50.974;13.936;2022-12-18T16:48:11;101839.41;;;-4.30;100.00
28310;BME280;15571;50.974;13.936;2022-12-18T16:51:13;101837.63;;;-4.31;100.00
28310;BME280;15571;50.974;13.936;2022-12-18T16:54:15;101825.84;;;-4.29;100.00
28310;BME280;15571;50.974;13.936;2022-12-18T16:57:18;101829.19;;;-4.30;100.00
28310;BME280;15571;50.974;13.936;2022-12-18T17:00:22;101824.31;;;-4.27;100.00
28310;BME280;15571;50.974;13.936;2022-12-18T17:03:26;101835.69;;;-4.23;100.00
28310;BME280;15571;50.974;13.936;2022-12-18T17:06:31;101841.72;;;-4.23;100.00
28310;BME280;15571;50.974;13.936;2022-12-18T17:09:33;101845.25;;;-4.20;100.00
28310;BME280;15571;50.974;13.936;2022-12-18T17:12:38;101834.16;;;-4.21;100.00
28310;BME280;15571;50.974;13.936;2022-12-18T17:15:44;101823.66;;;-4.24;100.00
28310;BME280;15571;50.974;13.936;2022-12-18T17:18:47;101818.44;;;-4.26;100.00
28310;BME280;15571;50.974;13.936;2022-12-18T17:21:50;101824.59;;;-4.24;100.00
28310;BME280;15571;50.974;13.936;2022-12-18T17:24:55;101829.44;;;-4.27;100.00
28310;BME280;15571;50.974;13.936;2022-12-18T17:27:58;101816.16;;;-4.23;100.00
28310;BME280;15571;50.974;13.936;2022-12-18T17:31:03;101818.69;;;-4.23;100.00
28310;BME280;15571;50.974;13.936;2022-12-18T17:34:11;101811.78;;;-4.24;100.00
28310;BME280;15571;50.974;13.936;2022-12-18T17:37:13;101811.03;;;-4.23;100.00
28310;BME280;15571;50.974;13.936;2022-12-18T17:40:15;101807.44;;;-4.25;100.00
28310;BME280;15571;50.974;13.936;2022-12-18T17:43:20;101809.25;;;-4.24;100.00
28310;BME280;15571;50.974;13.936;2022-12-18T17:46:23;101805.91;;;-4.23;100.00
28310;BME280;15571;50.974;13.936;2022-12-18T17:49:25;101807.72;;;-4.22;100.00
28310;BME280;15571;50.974;13.936;2022-12-18T17:52:27;101806.91;;;-4.20;100.00
28310;BME280;15571;50.974;13.936;2022-12-18T17:55:29;101799.22;;;-4.20;100.00
28310;BME280;15571;50.974;13.936;2022-12-18T17:58:32;101790.56;;;-4.23;100.00
28310;BME280;15571;50.974;13.936;2022-12-18T18:01:36;101784.53;;;-4.23;100.00
28310;BME280;15571;50.974;13.936;2022-12-18T18:04:44;101785.47;;;-4.23;100.00
28310;BME280;15571;50.974;13.936;2022-12-18T18:07:47;101794.13;;;-4.20;100.00
28310;BME280;15571;50.974;13.936;2022-12-18T18:10:49;101789.81;;;-4.22;100.00
28310;BME280;15571;50.974;13.936;2022-12-18T18:13:51;101793.91;;;-4.24;100.00
28310;BME280;15571;50.974;13.936;2022-12-18T18:17:06;101782.13;;;-4.22;100.00
28310;BME280;15571;50.974;13.936;2022-12-18T18:20:08;101789.00;;;-4.20;100.00
28310;BME280;15571;50.974;13.936;2022-12-18T18:23:10;101785.69;;;-4.19;100.00
28310;BME280;15571;50.974;13.936;2022-12-18T18:26:15;101781.59;;;-4.17;100.00
28310;BME280;15571;50.974;13.936;2022-12-18T18:29:18;101791.03;;;-4.16;100.00
28310;BME280;15571;50.974;13.936;2022-12-18T20:27:16;101668.81;;;-3.98;100.00
28310;BME280;15571;50.974;13.936;2022-12-18T20:30:20;101680.19;;;-3.95;100.00
28310;BME280;15571;50.974;13.936;2022-12-18T20:33:22;101678.50;;;-3.94;100.00
28310;BME280;15571;50.974;13.936;2022-12-18T20:36:27;101682.59;;;-3.96;100.00
28310;BME280;15571;50.974;13.936;2022-12-18T20:39:31;101675.84;;;-3.96;100.00
28310;BME280;15571;50.974;13.936;2022-12-18T20:42:37;101676.59;;;-3.97;100.00
28310;BME280;15571;50.974;13.936;2022-12-18T20:45:41;101664.59;;;-3.98;100.00
28310;BME280;15571;50.974;13.936;2022-12-18T20:48:43;101669.94;;;-3.95;100.00
28310;BME280;15571;50.974;13.936;2022-12-18T20:51:48;101664.84;;;-3.95;100.00
28310;BME280;15571;50.974;13.936;2022-12-18T20:54:56;101668.41;;;-3.93;100.00
28310;BME280;15571;50.974;13.936;2022-12-18T20:58:00;101665.19;;;-3.90;100.00
28310;BME280;15571;50.974;13.936;2022-12-18T21:01:05;101655.16;;;-3.87;100.00
28310;BME280;15571;50.974;13.936;2022-12-18T21:04:11;101659.41;;;-3.87;100.00
28310;BME280;15571;50.974;13.936;2022-12-18T21:07:13;101646.84;;;-3.84;100.00
28310;BME280;15571;50.974;13.936;2022-12-18T21:10:20;101648.63;;;-3.83;100.00
28310;BME280;15571;50.974;13.936;2022-12-18T21:13:25;101660.66;;;-3.82;100.00
28310;BME280;15571;50.974;13.936;2022-12-18T21:16:27;101652.97;;;-3.82;100.00
28310;BME280;15571;50.974;13.936;2022-12-18T21:19:35;101660.66;;;-3.82;100.00
28310;BME280;15571;50.974;13.936;2022-12-18T21:22:38;101677.00;;;-3.80;100.00
28310;BME280;15571;50.974;13.936;2022-12-18T21:25:43;101670.91;;;-3.82;100.00
28310;BME280;15571;50.974;13.936;2022-12-18T21:28:52;101675.75;;;-3.85;100.00
28310;BME280;15571;50.974;13.936;2022-12-18T21:31:56;101660.53;;;-3.84;100.00
28310;BME280;15571;50.974;13.936;2022-12-18T21:34:58;101665.78;;;-3.82;100.00
28310;BME280;15571;50.974;13.936;2022-12-18T21:38:01;101660.66;;;-3.82;100.00
28310;BME280;15571;50.974;13.936;2022-12-18T21:41:07;101662.41;;;-3.81;100.00
28310;BME280;15571;50.974;13.936;2022-12-18T21:44:15;101658.97;;;-3.82;100.00
28310;BME280;15571;50.974;13.936;2022-12-18T21:47:21;101657.28;;;-3.81;100.00
28310;BME280;15571;50.974;13.936;2022-12-18T21:50:31;101654.63;;;-3.83;100.00
28310;BME280;15571;50.974;13.936;2022-12-18T21:53:33;101652.19;;;-3.81;100.00
28310;BME280;15571;50.974;13.936;2022-12-18T21:56:47;101648.06;;;-3.79;100.00
28310;BME280;15571;50.974;13.936;2022-12-18T21:59:54;101653.31;;;-3.78;100.00
28310;BME280;15571;50.974;13.936;2022-12-18T22:02:56;101635.41;;;-3.78;100.00
28310;BME280;15571;50.974;13.936;2022-12-18T22:06:01;101656.88;;;-3.76;100.00
28310;BME280;15571;50.974;13.936;2022-12-18T22:09:06;101633.72;;;-3.77;100.00
28310;BME280;15571;50.974;13.936;2022-12-18T22:12:11;101644.22;;;-3.74;100.00
28310;BME280;15571;50.974;13.936;2022-12-18T22:15:36;101644.56;;;-3.69;100.00
28310;BME280;15571;50.974;13.936;2022-12-18T22:18:39;101635.97;;;-3.70;100.00
28310;BME280;15571;50.974;13.936;2022-12-18T22:21:42;101627.50;;;-3.69;100.00
28310;BME280;15571;50.974;13.936;2022-12-18T22:24:46;101629.31;;;-3.68;100.00
28310;BME280;15571;50.974;13.936;2022-12-18T22:27:48;101641.31;;;-3.67;100.00
28310;BME280;15571;50.974;13.936;2022-12-18T22:31:05;101638.75;;;-3.67;100.00
28310;BME280;15571;50.974;13.936;2022-12-18T22:34:08;101643.13;;;-3.66;100.00
28310;BME280;15571;50.974;13.936;2022-12-18T22:37:10;101645.53;;;-3.67;100.00
28310;BME280;15571;50.974;13.936;2022-12-18T22:40:12;101632.88;;;-3.66;100.00
28310;BME280;15571;50.974;13.936;2022-12-18T22:43:18;101624.97;;;-3.69;100.00
28310;BME280;15571;50.974;13.936;2022-12-18T22:46:22;101632.41;;;-3.72;100.00
28310;BME280;15571;50.974;13.936;2022-12-18T22:49:27;101632.63;;;-3.69;100.00
28310;BME280;15571;50.974;13.936;2022-12-18T22:52:29;101625.53;;;-3.73;100.00